Time;durP1;ratioP1;P1;durP2;ratioP2;P2;SDS_P1;SDS_P2;PMS_P1;PMS_P2;Temp;Humidity;BMP_temperature;BMP_pressure;BME280_temperature;BME280_humidity;BME280_pressure;Samples;Min_cycle;Max_cycle;Signal;HPM_P1;HPM_P2
2023/01/07 00:01:06;;;;;;;20.65;17.63;;;10.20;99.90;;;;;;5039065;28;20503;-86
2023/01/07 00:03:32;;;;;;;21.77;18.63;;;10.30;99.90;;;;;;5055389;28;20045;-86
2023/01/07 00:06:06;;;;;;;20.67;18.25;;;10.30;99.90;;;;;;5055288;28;20144;-86
2023/01/07 00:08:34;;;;;;;21.33;18.65;;;10.30;99.90;;;;;;5055576;28;20044;-86
2023/01/07 00:11:02;;;;;;;21.98;19.60;;;10.30;99.90;;;;;;5072752;28;20048;-86
2023/01/07 00:13:28;;;;;;;22.40;18.88;;;10.30;99.90;;;;;;5057447;28;20464;-86
2023/01/07 00:16:02;;;;;;;23.17;19.70;;;10.30;99.90;;;;;;5070458;28;20090;-86
2023/01/07 00:18:27;;;;;;;22.60;19.38;;;10.40;99.90;;;;;;5054746;28;20504;-86
2023/01/07 00:21:01;;;;;;;24.33;20.77;;;10.40;99.90;;;;;;5054380;28;20036;-86
2023/01/07 00:23:28;;;;;;;22.92;19.95;;;10.40;99.90;;;;;;5044794;28;20098;-86
2023/01/07 00:26:02;;;;;;;22.08;19.48;;;10.40;99.90;;;;;;5037760;28;20138;-86
2023/01/07 00:28:28;;;;;;;21.98;19.23;;;10.40;99.90;;;;;;5054710;28;20071;-87
2023/01/07 00:31:06;;;;;;;22.77;20.38;;;10.40;99.90;;;;;;5038235;28;20090;-86
2023/01/07 00:33:34;;;;;;;25.90;21.73;;;10.40;99.90;;;;;;5056338;28;20921;-86
2023/01/07 00:36:00;;;;;;;24.35;21.00;;;10.40;99.90;;;;;;5039472;28;20044;-86
2023/01/07 00:38:26;;;;;;;23.92;20.63;;;10.40;99.90;;;;;;5039314;28;20044;-85
2023/01/07 00:40:52;;;;;;;23.10;20.65;;;10.40;99.90;;;;;;5071566;28;20040;-85
2023/01/07 00:43:17;;;;;;;24.23;21.63;;;10.40;99.90;;;;;;5039389;28;20040;-86
2023/01/07 00:45:43;;;;;;;25.05;21.88;;;10.50;99.90;;;;;;5031537;28;20385;-85
2023/01/07 00:48:09;;;;;;;25.58;22.05;;;10.40;99.90;;;;;;5039694;28;20374;-85
2023/01/07 00:50:36;;;;;;;22.63;20.23;;;10.50;99.90;;;;;;5038080;28;20052;-86
2023/01/07 00:53:02;;;;;;;21.77;19.50;;;10.50;99.90;;;;;;5020249;28;20163;-86
2023/01/07 00:55:28;;;;;;;21.27;18.90;;;10.50;99.90;;;;;;5019127;28;20036;-86
2023/01/07 00:57:55;;;;;;;21.10;18.80;;;10.60;99.90;;;;;;5037676;28;20597;-86
2023/01/07 01:00:22;;;;;;;20.83;18.55;;;10.50;99.90;;;;;;5021780;28;20468;-86
2023/01/07 01:02:49;;;;;;;21.40;19.17;;;10.60;99.90;;;;;;5037967;28;20052;-86
2023/01/07 01:05:15;;;;;;;20.00;16.65;;;10.60;99.90;;;;;;5053912;28;20532;-86
2023/01/07 01:07:41;;;;;;;20.88;18.35;;;10.50;99.90;;;;;;5037157;28;20066;-85
2023/01/07 01:10:10;;;;;;;19.77;17.77;;;10.60;99.90;;;;;;5021195;28;20075;-86
2023/01/07 01:12:36;;;;;;;20.92;18.73;;;10.60;99.90;;;;;;5053049;28;20174;-86
2023/01/07 01:15:09;;;;;;;21.38;18.95;;;10.60;99.90;;;;;;5003452;28;20163;-86
2023/01/07 01:17:34;;;;;;;19.83;17.80;;;10.60;99.90;;;;;;5053879;28;20512;-86
2023/01/07 01:20:00;;;;;;;19.80;17.77;;;10.60;99.90;;;;;;5010473;28;20040;-86
2023/01/07 01:22:26;;;;;;;20.92;18.73;;;10.60;99.90;;;;;;5036455;28;20116;-86
2023/01/07 01:24:52;;;;;;;19.83;17.80;;;10.60;99.90;;;;;;5036587;28;20046;-86
2023/01/07 01:27:18;;;;;;;19.50;17.35;;;10.60;99.90;;;;;;5026025;28;20123;-86
2023/01/07 01:29:44;;;;;;;19.02;15.77;;;10.70;99.90;;;;;;5036939;28;20083;-86
2023/01/07 01:32:09;;;;;;;16.60;14.68;;;10.70;99.90;;;;;;5020429;28;20040;-85
2023/01/07 01:34:35;;;;;;;19.08;17.02;;;10.70;99.90;;;;;;5029353;28;20054;-86
2023/01/07 01:37:01;;;;;;;21.58;18.13;;;10.70;99.90;;;;;;5020568;28;20484;-86
2023/01/07 01:39:26;;;;;;;19.35;16.52;;;10.70;99.90;;;;;;5040651;28;20068;-86
2023/01/07 01:41:52;;;;;;;21.35;17.30;;;10.70;99.90;;;;;;5020671;28;20044;-85
2023/01/07 01:44:44;;;;;;;19.13;17.17;;;10.70;99.90;;;;;;5030505;28;20041;-86
2023/01/07 01:47:24;;;;;;;19.58;17.60;;;10.70;99.90;;;;;;5038388;28;20449;-86
2023/01/07 01:49:59;;;;;;;20.63;17.40;;;10.70;99.90;;;;;;5025521;28;20047;-86
2023/01/07 01:52:34;;;;;;;17.42;14.93;;;10.70;99.90;;;;;;5046850;28;20044;-86
2023/01/07 01:55:03;;;;;;;15.75;14.05;;;10.70;99.90;;;;;;5036143;28;20062;-86
2023/01/07 01:57:33;;;;;;;19.38;17.33;;;10.70;99.90;;;;;;5052388;28;20047;-86
2023/01/07 01:59:59;;;;;;;20.90;17.33;;;10.70;99.90;;;;;;5033371;28;20048;-85
2023/01/07 02:02:48;;;;;;;19.40;16.98;;;10.70;99.90;;;;;;5007782;28;20049;-86
2023/01/07 02:05:15;;;;;;;18.73;16.67;;;10.70;99.90;;;;;;5017312;28;20515;-86
2023/01/07 02:07:40;;;;;;;19.45;17.45;;;10.70;99.90;;;;;;5041821;28;20513;-86
2023/01/07 02:10:17;;;;;;;14.90;13.35;;;10.70;99.90;;;;;;5008494;28;20052;-86
2023/01/07 02:12:55;;;;;;;16.60;14.73;;;10.70;99.90;;;;;;5047491;28;20040;-86
2023/01/07 02:15:27;;;;;;;18.60;16.15;;;10.70;99.90;;;;;;5052397;28;20048;-86
2023/01/07 02:18:13;;;;;;;18.30;16.17;;;10.70;99.90;;;;;;5027340;28;20119;-86
2023/01/07 02:20:42;;;;;;;17.98;16.08;;;10.70;99.90;;;;;;5026253;28;20469;-86
2023/01/07 02:23:55;;;;;;;16.33;14.65;;;10.70;99.90;;;;;;5035567;28;20404;-86
2023/01/07 02:27:15;;;;;;;15.60;14.05;;;10.70;99.90;;;;;;5022157;28;20423;-86
2023/01/07 02:29:59;;;;;;;16.98;13.48;;;10.70;99.90;;;;;;4951961;28;20031;-86
2023/01/07 02:32:56;;;;;;;16.33;14.25;;;10.70;99.90;;;;;;4935828;28;20049;-86
2023/01/07 02:35:52;;;;;;;15.20;13.35;;;10.80;99.90;;;;;;5010114;28;20059;-86
2023/01/07 02:38:34;;;;;;;17.83;15.45;;;10.70;99.90;;;;;;5033796;28;20102;-86
2023/01/07 02:41:18;;;;;;;17.15;14.65;;;10.70;99.90;;;;;;5051360;28;20370;-86
2023/01/07 02:44:05;;;;;;;18.17;16.05;;;10.70;99.90;;;;;;5035545;28;20429;-86
2023/01/07 02:46:56;;;;;;;19.17;16.35;;;10.70;99.90;;;;;;5040369;28;20485;-86
2023/01/07 02:49:22;;;;;;;18.95;15.27;;;10.70;99.90;;;;;;5024156;28;20431;-86
2023/01/07 02:51:50;;;;;;;16.13;14.02;;;10.70;99.90;;;;;;5041726;28;20052;-86
2023/01/07 02:54:24;;;;;;;16.27;14.00;;;10.60;99.90;;;;;;5024657;28;20101;-87
2023/01/07 02:57:09;;;;;;;19.33;14.60;;;10.70;99.90;;;;;;5025143;28;20400;-86
2023/01/07 02:59:50;;;;;;;16.63;12.85;;;10.70;99.90;;;;;;5024765;28;20045;-86
2023/01/07 03:02:46;;;;;;;17.63;12.95;;;10.60;99.90;;;;;;5025234;28;20047;-86
2023/01/07 03:05:26;;;;;;;20.73;16.05;;;10.70;99.90;;;;;;5025702;28;20036;-86
2023/01/07 03:08:07;;;;;;;16.30;12.20;;;10.60;99.90;;;;;;5044045;28;20393;-86
2023/01/07 03:10:44;;;;;;;20.35;14.95;;;10.60;99.90;;;;;;5023175;28;20047;-86
2023/01/07 03:13:19;;;;;;;19.25;14.20;;;10.70;99.90;;;;;;5039286;28;20044;-86
2023/01/07 03:15:52;;;;;;;19.43;15.37;;;10.70;99.90;;;;;;5026477;28;20048;-87
2023/01/07 03:18:22;;;;;;;16.15;13.55;;;10.60;99.90;;;;;;5024623;28;20442;-86
2023/01/07 03:21:02;;;;;;;20.15;14.40;;;10.60;99.90;;;;;;5023432;28;20041;-86
2023/01/07 03:23:29;;;;;;;17.92;14.52;;;10.60;99.90;;;;;;5025693;28;20109;-86
2023/01/07 03:25:59;;;;;;;18.50;15.68;;;10.60;99.90;;;;;;5025789;28;20037;-86
2023/01/07 03:28:28;;;;;;;17.63;14.82;;;10.70;99.90;;;;;;5028704;28;20535;-86
2023/01/07 03:30:57;;;;;;;23.20;14.20;;;10.60;99.90;;;;;;5027995;28;20047;-86
2023/01/07 03:33:33;;;;;;;15.43;13.15;;;10.70;99.90;;;;;;5025557;28;20070;-86
2023/01/07 03:36:02;;;;;;;17.75;13.88;;;10.70;99.90;;;;;;5035936;28;20048;-86
2023/01/07 03:38:29;;;;;;;17.95;14.38;;;10.70;99.90;;;;;;5027908;28;20523;-86
2023/01/07 03:40:55;;;;;;;17.02;13.85;;;10.70;99.90;;;;;;5012009;28;20076;-87
2023/01/07 03:43:22;;;;;;;17.70;12.73;;;10.70;99.90;;;;;;5028235;28;20138;-86
2023/01/07 03:45:49;;;;;;;16.98;11.85;;;10.70;99.90;;;;;;5047472;28;20066;-87
2023/01/07 03:48:15;;;;;;;17.48;12.13;;;10.70;99.90;;;;;;5057239;28;20139;-87
2023/01/07 03:50:40;;;;;;;14.98;10.80;;;10.70;99.90;;;;;;5058041;28;20127;-86
2023/01/07 03:53:06;;;;;;;16.52;12.02;;;10.70;99.90;;;;;;5026539;28;20039;-86
2023/01/07 03:55:32;;;;;;;15.23;11.90;;;10.70;99.90;;;;;;5041687;28;20495;-86
2023/01/07 03:57:58;;;;;;;15.52;11.73;;;10.60;99.90;;;;;;5058867;28;20117;-86
2023/01/07 04:00:24;;;;;;;14.77;11.70;;;10.60;99.90;;;;;;5057319;28;20047;-86
2023/01/07 04:02:49;;;;;;;14.18;11.32;;;10.60;99.90;;;;;;5058421;28;20214;-86
2023/01/07 04:05:15;;;;;;;13.23;10.43;;;10.60;99.90;;;;;;5058079;28;20050;-86
2023/01/07 04:07:41;;;;;;;16.38;10.32;;;10.60;99.90;;;;;;5041820;28;20047;-87
2023/01/07 04:10:08;;;;;;;15.00;10.63;;;10.60;99.90;;;;;;5041211;28;20040;-86
2023/01/07 04:12:33;;;;;;;15.45;11.23;;;10.60;99.90;;;;;;5057966;28;20048;-87
2023/01/07 04:14:59;;;;;;;14.27;10.63;;;10.60;99.90;;;;;;5058315;28;20044;-86
2023/01/07 04:17:25;;;;;;;14.80;11.27;;;10.60;99.90;;;;;;5025539;28;20043;-86
2023/01/07 04:19:51;;;;;;;15.43;10.43;;;10.60;99.90;;;;;;5041140;28;20036;-86
2023/01/07 04:22:16;;;;;;;13.52;10.63;;;10.60;99.90;;;;;;5024636;28;20036;-86
2023/01/07 04:24:42;;;;;;;11.32;9.27;;;10.50;99.90;;;;;;5040707;28;20510;-86
2023/01/07 04:27:08;;;;;;;13.32;10.23;;;10.50;99.90;;;;;;5042621;28;20044;-86
2023/01/07 04:29:33;;;;;;;14.32;10.63;;;10.50;99.90;;;;;;5025423;28;20361;-87
2023/01/07 04:31:59;;;;;;;12.10;9.70;;;10.60;99.90;;;;;;5041099;28;20074;-87
2023/01/07 04:34:25;;;;;;;14.30;10.23;;;10.60;99.90;;;;;;5041192;28;20036;-87
2023/01/07 04:36:51;;;;;;;11.77;9.80;;;10.50;99.90;;;;;;5056627;28;20063;-86
2023/01/07 04:39:17;;;;;;;16.48;10.77;;;10.50;99.90;;;;;;5041590;28;20428;-86
2023/01/07 04:41:42;;;;;;;13.45;10.35;;;10.50;99.90;;;;;;5074241;28;20048;-86
2023/01/07 04:44:08;;;;;;;11.85;9.85;;;10.50;99.90;;;;;;5057334;28;20047;-87
2023/01/07 04:46:34;;;;;;;11.52;8.80;;;10.50;99.90;;;;;;5052854;28;20102;-86
2023/01/07 04:49:00;;;;;;;14.32;8.77;;;10.50;99.90;;;;;;5036946;28;20047;-86
2023/01/07 04:51:26;;;;;;;12.02;8.63;;;10.50;99.90;;;;;;5053384;28;20496;-87
2023/01/07 04:53:51;;;;;;;14.48;9.70;;;10.50;99.90;;;;;;5037054;28;20044;-86
2023/01/07 04:56:17;;;;;;;11.93;7.20;;;10.50;99.90;;;;;;5053784;28;20055;-85
2023/01/07 04:58:43;;;;;;;10.60;7.47;;;10.40;99.90;;;;;;5054369;28;20040;-86
2023/01/07 05:01:10;;;;;;;14.48;9.63;;;10.50;99.90;;;;;;5053538;28;20048;-86
2023/01/07 05:03:36;;;;;;;10.80;7.72;;;10.40;99.90;;;;;;5054291;28;20086;-87
2023/01/07 05:06:02;;;;;;;11.50;8.75;;;10.40;99.90;;;;;;5053656;28;20136;-86
2023/01/07 05:08:28;;;;;;;10.23;8.05;;;10.40;99.90;;;;;;5037117;28;20048;-86
2023/01/07 05:10:54;;;;;;;10.25;8.82;;;10.40;99.90;;;;;;5053883;28;20070;-87
2023/01/07 05:13:22;;;;;;;12.85;8.57;;;10.40;99.90;;;;;;5020977;28;20493;-87
2023/01/07 05:15:48;;;;;;;12.07;8.43;;;10.30;99.90;;;;;;5070178;28;20334;-87
2023/01/07 05:18:15;;;;;;;10.77;8.32;;;10.40;99.90;;;;;;5037026;28;20119;-87
2023/01/07 05:20:40;;;;;;;7.53;5.68;;;10.40;99.90;;;;;;5053681;28;20044;-87
2023/01/07 05:23:06;;;;;;;11.00;7.30;;;10.40;99.90;;;;;;5036437;28;20047;-87
2023/01/07 05:25:33;;;;;;;10.93;8.52;;;10.40;99.90;;;;;;5036834;28;20044;-86
2023/01/07 05:27:59;;;;;;;11.73;7.72;;;10.40;99.90;;;;;;5036060;28;20562;-86
2023/01/07 05:30:26;;;;;;;12.70;8.95;;;10.30;99.90;;;;;;5053071;28;20044;-87
2023/01/07 05:32:51;;;;;;;11.23;8.32;;;10.30;99.90;;;;;;5053662;28;20036;-86
2023/01/07 05:35:17;;;;;;;10.85;8.25;;;10.30;99.90;;;;;;5053549;28;20109;-86
2023/01/07 05:37:44;;;;;;;12.43;8.57;;;10.40;99.90;;;;;;5037200;28;20036;-87
2023/01/07 05:40:10;;;;;;;13.23;8.40;;;10.40;99.90;;;;;;5036800;28;20503;-87
2023/01/07 05:42:36;;;;;;;11.32;8.38;;;10.40;99.90;;;;;;5036092;28;20036;-86
2023/01/07 05:45:02;;;;;;;12.18;8.25;;;10.40;99.90;;;;;;5036398;28;20135;-86
2023/01/07 05:47:27;;;;;;;10.88;9.00;;;10.40;99.90;;;;;;5052102;28;20051;-86
2023/01/07 05:49:53;;;;;;;12.02;7.80;;;10.30;99.90;;;;;;5019939;28;20036;-86
2023/01/07 05:52:19;;;;;;;10.30;7.70;;;10.40;99.90;;;;;;5052683;28;20037;-86
2023/01/07 05:54:44;;;;;;;11.07;7.68;;;10.40;99.90;;;;;;5019606;28;20116;-86
2023/01/07 05:57:10;;;;;;;12.25;7.78;;;10.40;99.90;;;;;;5069162;28;20055;-86
2023/01/07 05:59:36;;;;;;;12.18;7.63;;;10.40;99.90;;;;;;5036121;28;20033;-86
2023/01/07 06:02:02;;;;;;;11.38;7.82;;;10.40;99.90;;;;;;5036552;28;20049;-86
2023/01/07 06:04:28;;;;;;;9.20;7.05;;;10.50;99.90;;;;;;5036545;28;20047;-86
2023/01/07 06:06:54;;;;;;;11.57;7.15;;;10.40;99.90;;;;;;5036259;28;20037;-86
2023/01/07 06:09:19;;;;;;;10.13;6.95;;;10.40;99.90;;;;;;5035712;28;20477;-88
2023/01/07 06:11:45;;;;;;;10.57;6.70;;;10.40;99.90;;;;;;5051143;28;20055;-86
2023/01/07 06:14:11;;;;;;;10.43;6.43;;;10.40;99.90;;;;;;5035370;28;20094;-86
2023/01/07 06:16:36;;;;;;;9.13;6.72;;;10.40;99.90;;;;;;5034876;28;20127;-86
2023/01/07 06:19:02;;;;;;;9.80;7.13;;;10.40;99.90;;;;;;5035943;28;20063;-86
2023/01/07 06:21:28;;;;;;;9.13;6.72;;;10.40;99.90;;;;;;5052185;28;20036;-87
2023/01/07 06:23:55;;;;;;;8.88;6.13;;;10.40;99.90;;;;;;5017958;28;20041;-86
2023/01/07 06:26:21;;;;;;;9.27;6.13;;;10.40;99.90;;;;;;5068652;28;20058;-87
2023/01/07 06:28:47;;;;;;;8.95;5.95;;;10.40;99.90;;;;;;5051809;28;20399;-87
2023/01/07 06:31:13;;;;;;;9.20;5.63;;;10.50;99.90;;;;;;5052211;28;20047;-87
2023/01/07 06:33:39;;;;;;;10.38;6.43;;;10.40;99.90;;;;;;5052520;28;20493;-86
2023/01/07 06:36:06;;;;;;;7.82;5.85;;;10.40;99.90;;;;;;5052147;28;20048;-87
2023/01/07 06:38:32;;;;;;;10.70;6.47;;;10.40;99.90;;;;;;5035497;28;20040;-87
2023/01/07 06:40:57;;;;;;;11.18;6.53;;;10.40;99.90;;;;;;5035076;28;20032;-86
2023/01/07 06:43:24;;;;;;;8.23;6.00;;;10.30;99.90;;;;;;5034906;28;20044;-87
2023/01/07 06:45:49;;;;;;;8.57;6.38;;;10.40;99.90;;;;;;5051827;28;20131;-86
2023/01/07 06:48:15;;;;;;;8.07;5.95;;;10.30;99.90;;;;;;5068669;28;20559;-86
2023/01/07 06:50:43;;;;;;;8.45;6.15;;;10.30;99.90;;;;;;5052016;28;20046;-87
2023/01/07 06:53:09;;;;;;;6.22;4.90;;;10.30;99.90;;;;;;5052437;28;20186;-87
2023/01/07 06:55:34;;;;;;;6.05;5.05;;;10.20;99.90;;;;;;5052396;28;20123;-86
2023/01/07 06:58:00;;;;;;;7.90;5.30;;;10.20;99.90;;;;;;5035578;28;20046;-86
2023/01/07 07:00:26;;;;;;;8.30;5.50;;;10.20;99.90;;;;;;5052505;28;20043;-87
2023/01/07 07:02:51;;;;;;;7.18;5.13;;;10.20;99.90;;;;;;5052225;28;20499;-86
2023/01/07 07:05:17;;;;;;;7.45;5.20;;;10.10;99.90;;;;;;5019265;28;20078;-86
2023/01/07 07:07:43;;;;;;;7.57;5.07;;;10.10;99.90;;;;;;5035095;28;20072;-87
2023/01/07 07:10:09;;;;;;;6.13;4.65;;;10.10;99.90;;;;;;5034966;28;20048;-86
2023/01/07 07:12:36;;;;;;;7.22;5.18;;;10.10;99.90;;;;;;5051704;28;20044;-86
2023/01/07 07:15:04;;;;;;;8.35;5.20;;;10.10;99.90;;;;;;5035764;28;20044;-86
2023/01/07 07:17:29;;;;;;;6.63;4.28;;;10.10;99.90;;;;;;5052148;28;20071;-87
2023/01/07 07:19:55;;;;;;;9.02;4.45;;;10.10;99.90;;;;;;5033985;28;20488;-86
2023/01/07 07:22:21;;;;;;;8.68;4.75;;;10.00;99.90;;;;;;5050701;28;20041;-86
2023/01/07 07:24:47;;;;;;;5.43;4.05;;;10.00;99.90;;;;;;5034856;28;20100;-86
2023/01/07 07:27:12;;;;;;;6.00;4.30;;;10.00;99.90;;;;;;5035091;28;20047;-87
2023/01/07 07:29:38;;;;;;;7.00;4.80;;;10.00;99.90;;;;;;5035215;28;20084;-89
2023/01/07 07:32:04;;;;;;;5.68;4.32;;;10.00;99.90;;;;;;5037585;28;20040;-89
2023/01/07 07:34:30;;;;;;;9.95;4.50;;;10.00;99.90;;;;;;5037284;28;20123;-87
2023/01/07 07:36:55;;;;;;;6.93;4.70;;;10.00;99.90;;;;;;5036892;28;20098;-89
2023/01/07 07:39:21;;;;;;;6.15;3.80;;;9.90;99.90;;;;;;5021063;28;20483;-89
2023/01/07 07:41:47;;;;;;;9.40;4.65;;;9.90;99.90;;;;;;5038033;28;20059;-89
2023/01/07 07:44:12;;;;;;;7.07;5.00;;;9.90;99.90;;;;;;5053063;28;20044;-87
2023/01/07 07:46:38;;;;;;;8.23;4.82;;;9.90;99.90;;;;;;5053987;28;20052;-89
2023/01/07 07:49:04;;;;;;;7.90;4.95;;;9.90;99.90;;;;;;5038161;28;20045;-88
2023/01/07 07:51:31;;;;;;;6.95;4.88;;;9.80;99.90;;;;;;5056858;28;20139;-91
2023/01/07 07:53:57;;;;;;;7.32;4.47;;;9.80;99.90;;;;;;5055591;28;20040;-90
2023/01/07 07:56:23;;;;;;;5.82;4.30;;;9.80;99.90;;;;;;5056790;28;20037;-90
2023/01/07 07:58:49;;;;;;;6.82;4.55;;;8.70;99.90;;;;;;5035844;28;20033;-90
2023/01/07 08:01:15;;;;;;;7.97;4.22;;;9.80;99.90;;;;;;5052660;28;20037;-89
2023/01/07 08:03:40;;;;;;;5.63;4.47;;;9.90;99.90;;;;;;5035854;28;20037;-89
2023/01/07 08:06:06;;;;;;;6.47;3.90;;;9.80;99.90;;;;;;5040002;28;20048;-89
2023/01/07 08:08:32;;;;;;;6.38;3.67;;;9.80;99.90;;;;;;5023439;28;20040;-89
2023/01/07 08:10:58;;;;;;;7.20;3.20;;;9.90;99.90;;;;;;5055344;28;20155;-92
2023/01/07 08:13:24;;;;;;;7.35;3.80;;;9.80;99.90;;;;;;5043081;28;20033;-91
2023/01/07 08:15:50;;;;;;;8.65;4.15;;;9.30;99.90;;;;;;5041553;28;20100;-90
2023/01/07 08:18:19;;;;;;;5.15;3.42;;;9.90;99.90;;;;;;5055826;28;20041;-91
2023/01/07 08:20:46;;;;;;;7.03;4.43;;;9.80;99.90;;;;;;5039601;28;20044;-89
2023/01/07 08:23:11;;;;;;;4.88;3.33;;;9.90;99.90;;;;;;5057853;28;20044;-89
2023/01/07 08:25:37;;;;;;;5.43;3.95;;;9.80;99.90;;;;;;5057737;28;20040;-89
2023/01/07 08:28:03;;;;;;;5.38;3.53;;;9.90;99.90;;;;;;5058860;28;20051;-89
2023/01/07 08:30:30;;;;;;;7.75;4.05;;;9.80;99.90;;;;;;5058066;28;20170;-90
2023/01/07 08:32:56;;;;;;;6.75;3.78;;;9.90;99.90;;;;;;5058336;28;20044;-88
2023/01/07 08:35:22;;;;;;;5.07;3.60;;;9.90;99.90;;;;;;5056830;28;20051;-89
2023/01/07 08:37:49;;;;;;;4.40;2.80;;;9.80;99.90;;;;;;5056796;28;20048;-88
2023/01/07 08:40:14;;;;;;;7.10;3.20;;;10.00;99.90;;;;;;5056499;28;20040;-88
2023/01/07 08:42:41;;;;;;;6.18;3.03;;;;;;;;;;5056394;28;20040;-87
2023/01/07 08:45:09;;;;;;;5.22;3.22;;;10.10;99.90;;;;;;5056725;28;20106;-88
2023/01/07 08:47:35;;;;;;;6.07;3.80;;;9.90;99.90;;;;;;5055864;28;20036;-89
2023/01/07 08:50:02;;;;;;;5.70;3.38;;;10.70;99.90;;;;;;5057590;28;20455;-88
2023/01/07 08:52:28;;;;;;;6.03;3.35;;;9.80;99.90;;;;;;5057082;28;20076;-88
2023/01/07 08:54:54;;;;;;;7.88;3.70;;;9.80;99.90;;;;;;5057877;28;20037;-87
2023/01/07 08:57:20;;;;;;;4.18;3.33;;;9.90;99.90;;;;;;5056974;28;20098;-88
2023/01/07 08:59:45;;;;;;;6.38;3.28;;;9.90;99.90;;;;;;5056478;28;20040;-87
2023/01/07 09:02:18;;;;;;;4.57;3.35;;;10.00;99.90;;;;;;5057221;28;20040;-87
2023/01/07 09:04:44;;;;;;;5.60;3.60;;;9.90;99.90;;;;;;5056542;28;20090;-88
2023/01/07 09:07:10;;;;;;;7.85;3.55;;;9.90;99.90;;;;;;5056891;28;20469;-87
2023/01/07 09:09:37;;;;;;;6.60;4.05;;;9.90;99.90;;;;;;5057511;28;20036;-87
2023/01/07 09:12:04;;;;;;;6.10;3.35;;;11.00;99.90;;;;;;5073435;28;20385;-88
2023/01/07 09:14:30;;;;;;;5.90;3.20;;;9.90;99.90;;;;;;5056588;28;20043;-88
2023/01/07 09:16:56;;;;;;;4.85;3.30;;;9.90;99.90;;;;;;5056329;28;20045;-88
2023/01/07 09:19:21;;;;;;;5.50;3.28;;;9.90;99.90;;;;;;5056558;28;20037;-89
2023/01/07 09:21:47;;;;;;;6.38;3.92;;;9.90;99.90;;;;;;5055085;28;20040;-88
2023/01/07 09:24:13;;;;;;;6.28;3.20;;;10.00;99.90;;;;;;5054853;28;20033;-87
2023/01/07 09:26:39;;;;;;;5.43;3.10;;;10.10;99.90;;;;;;5055447;28;20590;-88
2023/01/07 09:29:04;;;;;;;5.07;2.78;;;10.20;99.90;;;;;;5021737;28;20052;-89
2023/01/07 09:31:30;;;;;;;4.05;2.40;;;10.40;99.90;;;;;;5055811;28;20090;-89
2023/01/07 09:33:56;;;;;;;4.43;2.70;;;10.40;99.90;;;;;;5057451;28;20048;-89
2023/01/07 09:36:21;;;;;;;4.07;2.58;;;10.50;99.90;;;;;;5057308;28;20051;-88
2023/01/07 09:38:47;;;;;;;3.70;2.47;;;10.60;99.90;;;;;;5056282;28;20036;-86
2023/01/07 09:41:39;;;;;;;5.00;2.70;;;10.50;99.90;;;;;;5055091;28;20036;-88
2023/01/07 09:44:26;;;;;;;4.95;2.22;;;10.50;99.90;;;;;;5054382;28;20393;-86
2023/01/07 09:46:54;;;;;;;8.05;2.55;;;10.50;99.90;;;;;;5054147;28;20056;-87
2023/01/07 09:49:24;;;;;;;5.13;2.70;;;10.50;99.90;;;;;;5054653;28;20048;-88
2023/01/07 09:51:58;;;;;;;4.75;2.85;;;10.60;99.90;;;;;;5057354;28;20381;-88
2023/01/07 09:54:34;;;;;;;3.78;2.13;;;10.60;99.90;;;;;;5060360;28;20051;-87
2023/01/07 09:57:00;;;;;;;4.75;2.38;;;10.60;99.90;;;;;;5055141;28;20041;-87
2023/01/07 09:59:26;;;;;;;4.05;2.42;;;10.60;99.90;;;;;;5053555;28;20120;-88
2023/01/07 10:02:26;;;;;;;3.85;2.90;;;10.60;99.90;;;;;;5070149;28;20198;-87
2023/01/07 10:05:17;;;;;;;2.38;1.75;;;10.70;99.90;;;;;;5053944;28;20046;-87
2023/01/07 10:08:02;;;;;;;3.72;2.38;;;10.80;99.90;;;;;;5052818;28;20032;-88
2023/01/07 10:10:31;;;;;;;3.33;2.30;;;10.80;99.90;;;;;;5053938;28;20041;-88
2023/01/07 10:13:03;;;;;;;4.85;2.42;;;10.80;99.90;;;;;;5054807;28;20404;-88
2023/01/07 10:15:55;;;;;;;3.17;2.13;;;10.90;99.90;;;;;;5054789;28;20456;-88
2023/01/07 10:18:41;;;;;;;3.58;2.10;;;10.90;99.90;;;;;;5053607;28;20540;-87
2023/01/07 10:21:15;;;;;;;3.45;2.20;;;10.90;99.90;;;;;;5053204;28;20041;-87
2023/01/07 10:23:45;;;;;;;3.40;2.00;;;11.00;99.90;;;;;;5069542;28;20072;-86
2023/01/07 10:26:32;;;;;;;3.80;2.00;;;10.90;99.90;;;;;;5054043;28;20700;-89
2023/01/07 10:29:21;;;;;;;3.25;2.10;;;11.00;99.90;;;;;;5047774;28;20047;-88
2023/01/07 10:31:48;;;;;;;3.83;1.95;;;11.10;99.90;;;;;;5054080;28;20484;-88
2023/01/07 10:34:23;;;;;;;2.60;1.80;;;11.00;99.90;;;;;;5054271;28;20041;-87
2023/01/07 10:36:51;;;;;;;3.75;2.00;;;11.00;99.90;;;;;;5053797;28;20051;-88
2023/01/07 10:39:25;;;;;;;3.30;2.00;;;11.10;99.90;;;;;;5053303;28;20182;-88
2023/01/07 10:42:10;;;;;;;2.58;2.10;;;11.00;99.90;;;;;;5053820;28;20040;-88
2023/01/07 10:44:36;;;;;;;5.53;2.20;;;11.10;99.90;;;;;;5055260;28;20131;-88
2023/01/07 10:47:37;;;;;;;2.65;1.75;;;10.70;99.90;;;;;;5056797;28;20492;-88
2023/01/07 10:50:31;;;;;;;2.28;1.63;;;11.10;99.90;;;;;;5056109;28;20412;-89
2023/01/07 10:53:15;;;;;;;3.30;1.70;;;11.10;99.90;;;;;;5057401;28;20101;-88
2023/01/07 10:55:55;;;;;;;3.42;1.70;;;11.00;99.90;;;;;;5059054;28;20123;-89
2023/01/07 10:58:21;;;;;;;4.15;2.55;;;11.10;99.90;;;;;;5059363;28;20105;-89
2023/01/07 11:00:47;;;;;;;5.40;2.40;;;11.20;99.90;;;;;;5059107;28;20036;-89
2023/01/07 11:03:32;;;;;;;3.53;2.63;;;11.30;99.90;;;;;;5043288;28;20068;-91
2023/01/07 11:06:04;;;;;;;2.47;1.70;;;11.30;99.90;;;;;;5058557;28;20044;-89
2023/01/07 11:08:41;;;;;;;2.53;1.90;;;11.30;99.90;;;;;;5060217;28;20093;-89
2023/01/07 11:11:18;;;;;;;3.67;2.28;;;11.20;99.90;;;;;;5064044;28;20048;-90
2023/01/07 11:13:58;;;;;;;3.33;2.00;;;11.10;99.90;;;;;;5054189;28;20541;-88
2023/01/07 11:16:32;;;;;;;3.25;2.00;;;11.10;99.90;;;;;;5059956;28;20044;-87
2023/01/07 11:19:09;;;;;;;4.15;2.30;;;11.20;99.90;;;;;;5054884;28;20047;-89
2023/01/07 11:21:37;;;;;;;2.92;1.95;;;11.20;99.90;;;;;;5059747;28;20043;-89
2023/01/07 11:24:18;;;;;;;4.32;1.85;;;11.20;99.90;;;;;;5058933;28;20441;-91
2023/01/07 11:26:45;;;;;;;3.58;1.85;;;11.20;99.90;;;;;;5058316;28;20044;-88
2023/01/07 11:29:20;;;;;;;4.70;2.30;;;11.20;99.90;;;;;;5058433;28;20035;-90
2023/01/07 11:31:54;;;;;;;6.22;2.33;;;11.20;99.90;;;;;;5049199;28;20499;-88
2023/01/07 11:34:33;;;;;;;2.47;1.90;;;11.20;99.90;;;;;;5058872;28;20096;-88
2023/01/07 11:36:59;;;;;;;3.40;2.03;;;11.20;99.90;;;;;;5058141;28;20488;-88
2023/01/07 11:39:29;;;;;;;3.30;2.08;;;11.20;99.90;;;;;;5058567;28;20032;-88
2023/01/07 11:45:17;;;;;;;4.28;1.98;;;11.30;99.90;;;;;;5073069;28;20488;-88
2023/01/07 11:47:53;;;;;;;2.55;1.42;;;11.30;99.90;;;;;;5062596;28;20043;-88
2023/01/07 11:50:39;;;;;;;2.60;1.60;;;11.30;99.90;;;;;;5051475;28;20071;-87
2023/01/07 11:53:14;;;;;;;3.28;1.77;;;11.40;99.90;;;;;;5079077;28;20081;-88
2023/01/07 11:56:20;;;;;;;4.05;1.95;;;11.60;99.90;;;;;;5058507;28;20541;-87
2023/01/07 11:59:12;;;;;;;2.95;1.70;;;11.70;99.90;;;;;;5049815;28;20151;-86
2023/01/07 12:01:46;;;;;;;3.85;1.67;;;11.80;99.90;;;;;;5059029;28;20047;-87
2023/01/07 12:04:44;;;;;;;3.20;1.60;;;11.90;99.90;;;;;;5065105;28;20043;-90
2023/01/07 12:07:15;;;;;;;2.13;1.50;;;11.90;99.90;;;;;;5058006;28;20511;-87
2023/01/07 12:09:43;;;;;;;3.75;1.80;;;11.90;99.90;;;;;;5075267;28;20059;-88
2023/01/07 12:12:33;;;;;;;2.20;1.27;;;12.00;99.90;;;;;;5062151;28;20066;-88
2023/01/07 12:15:03;;;;;;;1.88;1.60;;;12.00;99.90;;;;;;5075439;28;20075;-88
2023/01/07 12:17:32;;;;;;;3.63;1.40;;;11.90;99.90;;;;;;5060934;28;20044;-87
2023/01/07 12:19:57;;;;;;;1.60;1.30;;;12.00;99.90;;;;;;5060255;28;20035;-87
2023/01/07 12:22:52;;;;;;;3.45;1.20;;;12.00;99.90;;;;;;5060830;28;20039;-87
2023/01/07 12:25:39;;;;;;;3.22;1.40;;;12.10;99.90;;;;;;5058563;28;20076;-86
2023/01/07 12:28:14;;;;;;;2.30;1.40;;;12.10;99.90;;;;;;5061403;28;20404;-88
2023/01/07 12:31:07;;;;;;;2.17;1.33;;;12.10;99.90;;;;;;5060506;28;20511;-87
2023/01/07 12:33:55;;;;;;;2.28;1.40;;;12.10;99.90;;;;;;5060216;28;20032;-87
2023/01/07 12:36:44;;;;;;;2.08;1.40;;;12.10;99.90;;;;;;5059742;28;20044;-87
2023/01/07 12:39:29;;;;;;;3.75;1.20;;;12.10;99.90;;;;;;5059189;28;20123;-88
2023/01/07 12:42:12;;;;;;;2.00;1.20;;;12.00;99.90;;;;;;5059988;28;20032;-88
2023/01/07 12:44:43;;;;;;;3.72;1.55;;;11.90;99.90;;;;;;5060275;28;20046;-88
2023/01/07 12:47:28;;;;;;;3.50;1.45;;;11.90;99.90;;;;;;5051879;28;20048;-88
2023/01/07 12:50:03;;;;;;;1.83;1.48;;;12.00;99.90;;;;;;5077460;28;20044;-88
2023/01/07 12:52:49;;;;;;;2.00;1.50;;;12.00;99.90;;;;;;5059537;28;20535;-89
2023/01/07 12:55:19;;;;;;;1.98;1.20;;;10.60;99.90;;;;;;5058934;28;20036;-89
2023/01/07 12:58:01;;;;;;;2.17;1.60;;;12.10;99.90;;;;;;5059393;28;20105;-89
2023/01/07 13:00:49;;;;;;;3.50;1.60;;;12.20;99.90;;;;;;5075686;28;20040;-89
2023/01/07 13:03:38;;;;;;;1.58;1.10;;;12.20;99.90;;;;;;5062153;28;20055;-90